Cobija, Cobija Capitan Anibal Arab Airport (SLCO)

NameCobija Capitan Anibal Arab Airport
CityCobija
CountryBrazil
ICAOSLCO
IATACIJ
Altitude272 m
CoordinatesGoogle Map
Live Air TrafficLiveATC.net
METARSLCO 181000Z 00000KT 9999 SCT027 BKN080 23/23 Q1012
2019-10-18 10:00:00 Wind: North (0°) 0 m/s - Visibility: > 10000 m - Temperature: 23 °C - Dew point: 23 °C - Humidity: 100% - Pressure: 1012 hPa

Sorry, no flights used the airport in this database.